Time;durP1;ratioP1;P1;durP2;ratioP2;P2;SDS_P1;SDS_P2;PMS_P1;PMS_P2;Temp;Humidity;BMP_temperature;BMP_pressure;BME280_temperature;BME280_humidity;BME280_pressure;Samples;Min_cycle;Max_cycle;Signal;HPM_P1;HPM_P2
2023/05/25 00:01:42;;;;;;;0.17;0.17;;;;;;;8.20;71.42;98149.41;5069659;28;20036;-74
2023/05/25 00:04:15;;;;;;;0.20;0.20;;;;;;;8.17;71.12;98152.44;5077799;28;20036;-73
2023/05/25 00:06:44;;;;;;;0.28;0.28;;;;;;;8.08;71.82;98154.25;5069548;28;20103;-73
2023/05/25 00:09:12;;;;;;;0.30;0.30;;;;;;;8.31;70.59;98153.56;5077967;28;20115;-74
2023/05/25 00:11:39;;;;;;;0.20;0.20;;;;;;;8.32;70.59;98156.09;5083944;28;20118;-73
2023/05/25 00:14:07;;;;;;;0.30;0.30;;;;;;;8.03;71.11;98147.75;5076139;28;20044;-74
2023/05/25 00:16:36;;;;;;;0.20;0.20;;;;;;;7.94;71.47;98143.44;5077100;28;20135;-74
2023/05/25 00:19:05;;;;;;;0.28;0.28;;;;;;;8.03;71.05;98140.63;5075740;28;20052;-74
2023/05/25 00:21:36;;;;;;;0.20;0.20;;;;;;;7.83;71.37;98147.25;5079880;28;20051;-74
2023/05/25 00:24:05;;;;;;;0.17;0.17;;;;;;;7.72;71.54;98139.56;5083187;28;20047;-75
2023/05/25 00:26:32;;;;;;;0.20;0.20;;;;;;;7.79;71.09;98145.09;5076956;28;20044;-73
2023/05/25 00:29:00;;;;;;;0.20;0.20;;;;;;;7.75;71.32;98141.91;5077464;28;20062;-74
2023/05/25 00:31:28;;;;;;;0.20;0.20;;;;;;;7.65;72.33;98144.72;5058955;28;20052;-74
2023/05/25 00:33:56;;;;;;;0.20;0.20;;;;;;;7.66;72.33;98145.56;5059371;28;20048;-73
2023/05/25 00:36:23;;;;;;;0.17;0.17;;;;;;;7.64;72.71;98148.38;5059840;28;20045;-72
2023/05/25 00:38:52;;;;;;;0.10;0.10;;;;;;;7.66;72.64;98149.03;5075126;28;20129;-74
2023/05/25 00:41:21;;;;;;;0.22;0.22;;;;;;;7.70;71.94;98152.19;5082217;28;20041;-72
2023/05/25 00:43:48;;;;;;;0.20;0.20;;;;;;;7.59;72.17;98148.00;5079502;28;20040;-72
2023/05/25 00:46:16;;;;;;;0.20;0.20;;;;;;;7.41;73.36;98143.81;5084695;28;20056;-72
2023/05/25 00:48:45;;;;;;;0.20;0.20;;;;;;;7.44;73.25;98149.63;5067619;28;20052;-74
2023/05/25 00:51:14;;;;;;;0.20;0.20;;;;;;;7.48;73.15;98147.47;5094613;28;20068;-72
2023/05/25 00:53:41;;;;;;;0.10;0.10;;;;;;;7.57;72.53;98139.38;5091463;28;20044;-73
2023/05/25 00:56:16;;;;;;;0.20;0.20;;;;;;;7.56;72.46;98143.03;5058941;28;20037;-73
2023/05/25 00:58:44;;;;;;;0.22;0.22;;;;;;;7.45;72.89;98146.00;5073306;28;20044;-74
2023/05/25 01:01:13;;;;;;;0.20;0.20;;;;;;;7.48;73.07;98144.81;5061067;28;20127;-74
2023/05/25 01:03:44;;;;;;;0.32;0.32;;;;;;;7.51;73.01;98148.00;5072170;28;20429;-75
2023/05/25 01:06:14;;;;;;;0.20;0.20;;;;;;;7.51;72.96;98144.50;5073750;28;20045;-71
2023/05/25 01:08:45;;;;;;;0.22;0.22;;;;;;;7.48;73.38;98144.81;5076742;28;20418;-73
2023/05/25 01:11:19;;;;;;;0.20;0.20;;;;;;;7.41;73.48;98136.66;5092681;28;20068;-72
2023/05/25 01:13:48;;;;;;;0.22;0.22;;;;;;;7.43;73.44;98134.69;5076605;28;20044;-73
2023/05/25 01:16:16;;;;;;;0.32;0.32;;;;;;;7.32;73.78;98129.69;5062919;28;20407;-74
2023/05/25 01:18:44;;;;;;;0.22;0.22;;;;;;;7.29;74.00;98136.13;5047443;28;20044;-74
2023/05/25 01:21:18;;;;;;;0.10;0.10;;;;;;;7.35;73.51;98132.84;5079919;28;20048;-73
2023/05/25 01:23:51;;;;;;;0.20;0.20;;;;;;;7.51;72.69;98134.72;5069547;28;20044;-74
2023/05/25 01:26:20;;;;;;;0.30;0.30;;;;;;;7.58;71.72;98133.06;5068966;28;20132;-71
2023/05/25 01:28:51;;;;;;;0.20;0.20;;;;;;;7.26;73.41;98138.28;5058390;28;20047;-74
2023/05/25 01:31:21;;;;;;;0.20;0.20;;;;;;;7.18;73.58;98139.06;5072377;28;20515;-74
2023/05/25 01:33:50;;;;;;;0.20;0.20;;;;;;;7.21;73.15;98138.75;5080719;28;20081;-72
2023/05/25 01:36:19;;;;;;;0.30;0.30;;;;;;;7.26;74.31;98132.97;5060753;28;20472;-72
2023/05/25 01:38:47;;;;;;;0.10;0.10;;;;;;;7.16;74.34;98134.94;5055785;28;20045;-72
2023/05/25 01:41:15;;;;;;;0.20;0.20;;;;;;;6.96;74.52;98134.31;5056934;28;20442;-75
2023/05/25 01:43:44;;;;;;;0.30;0.30;;;;;;;7.17;74.79;98144.53;5060318;28;20048;-75
2023/05/25 01:46:15;;;;;;;0.30;0.30;;;;;;;7.06;73.69;98135.03;5054804;28;20403;-73
2023/05/25 01:48:52;;;;;;;0.28;0.28;;;;;;;6.84;74.18;98133.78;5073939;28;20044;-73
2023/05/25 01:51:26;;;;;;;0.20;0.20;;;;;;;6.76;74.49;98131.06;5062232;28;20044;-73
2023/05/25 01:53:58;;;;;;;0.32;0.32;;;;;;;6.76;74.73;98131.06;5057934;28;20048;-73
2023/05/25 01:56:28;;;;;;;0.20;0.20;;;;;;;6.86;74.72;98142.41;5063006;28;20042;-72
2023/05/25 01:58:57;;;;;;;0.20;0.20;;;;;;;6.84;74.57;98139.09;5067606;28;20074;-72
2023/05/25 02:01:26;;;;;;;0.20;0.20;;;;;;;6.78;74.29;98141.53;5088252;28;20503;-72
2023/05/25 02:03:54;;;;;;;0.13;0.13;;;;;;;6.74;74.79;98143.69;5056627;28;20404;-71
2023/05/25 02:06:23;;;;;;;0.25;0.25;;;;;;;6.86;74.76;98141.56;5070893;28;20376;-72
2023/05/25 02:08:50;;;;;;;0.22;0.22;;;;;;;6.76;74.30;98151.47;5051559;28;20056;-72
2023/05/25 02:11:18;;;;;;;0.20;0.20;;;;;;;6.71;74.80;98151.94;5077531;28;20044;-74
2023/05/25 02:13:46;;;;;;;0.20;0.20;;;;;;;6.69;75.12;98150.44;5058214;28;20083;-72
2023/05/25 02:16:14;;;;;;;0.20;0.20;;;;;;;6.52;75.65;98153.00;5086164;28;20102;-72
2023/05/25 02:18:44;;;;;;;0.15;0.15;;;;;;;6.44;76.26;98158.22;5059326;28;20071;-74
2023/05/25 02:21:12;;;;;;;0.20;0.20;;;;;;;6.36;76.71;98160.81;5057894;28;20053;-76
2023/05/25 02:23:41;;;;;;;0.20;0.20;;;;;;;6.89;74.87;98159.84;5062756;28;20053;-75
2023/05/25 02:26:09;;;;;;;0.22;0.22;;;;;;;7.07;73.87;98162.41;5075613;28;20111;-76
2023/05/25 02:28:37;;;;;;;0.17;0.17;;;;;;;6.78;74.18;98165.41;5063188;28;20044;-73
2023/05/25 02:31:05;;;;;;;0.20;0.20;;;;;;;6.58;75.04;98162.13;5081835;28;20044;-75
2023/05/25 02:33:33;;;;;;;0.20;0.20;;;;;;;6.56;75.16;98166.75;5065227;28;20072;-72
2023/05/25 02:36:00;;;;;;;0.13;0.13;;;;;;;6.57;75.30;98150.69;5081104;28;20032;-74
2023/05/25 02:38:28;;;;;;;0.30;0.30;;;;;;;6.72;75.08;98150.13;5052518;28;20411;-75
2023/05/25 02:40:57;;;;;;;0.20;0.20;;;;;;;6.52;75.37;98155.66;5093105;22;20412;-72
2023/05/25 02:43:25;;;;;;;0.20;0.20;;;;;;;6.69;74.90;98153.09;5036794;28;20053;-72
2023/05/25 02:45:53;;;;;;;0.25;0.25;;;;;;;6.88;74.40;98161.66;5038352;28;20059;-73
2023/05/25 02:48:21;;;;;;;0.10;0.10;;;;;;;6.73;74.05;98149.97;5061436;28;20442;-73
2023/05/25 02:50:49;;;;;;;0.40;0.40;;;;;;;6.70;74.35;98163.53;5068148;28;20434;-73
2023/05/25 02:53:17;;;;;;;0.10;0.10;;;;;;;6.72;74.10;98164.22;5033561;28;20055;-74
2023/05/25 02:55:47;;;;;;;0.20;0.20;;;;;;;6.85;73.85;98167.25;5056924;28;20043;-74
2023/05/25 02:58:19;;;;;;;0.20;0.20;;;;;;;6.86;73.11;98170.75;5053684;28;20052;-72
2023/05/25 03:01:09;;;;;;;0.30;0.30;;;;;;;6.67;73.89;98171.81;5047404;28;20048;-73
2023/05/25 03:03:41;;;;;;;0.30;0.30;;;;;;;6.70;73.74;98173.31;5050479;28;20064;-73
2023/05/25 03:06:11;;;;;;;0.20;0.20;;;;;;;6.69;73.50;98172.47;5051142;28;20049;-73
2023/05/25 03:08:39;;;;;;;0.30;0.30;;;;;;;6.78;73.38;98174.19;5060717;28;20040;-73
2023/05/25 03:11:07;;;;;;;0.20;0.20;;;;;;;6.41;74.00;98177.09;5047466;28;20419;-73
2023/05/25 03:13:37;;;;;;;0.20;0.20;;;;;;;6.16;74.83;98176.06;5039384;28;20913;-73
2023/05/25 03:16:06;;;;;;;0.25;0.25;;;;;;;6.11;75.34;98177.50;5039460;28;20045;-73
2023/05/25 03:18:34;;;;;;;0.20;0.20;;;;;;;6.38;74.49;98181.88;5040138;28;20099;-73
2023/05/25 03:21:02;;;;;;;0.15;0.15;;;;;;;6.37;74.16;98185.50;5039636;28;20074;-73
2023/05/25 03:23:30;;;;;;;0.20;0.20;;;;;;;6.31;74.40;98183.47;5034935;28;20106;-73
2023/05/25 03:25:59;;;;;;;0.28;0.28;;;;;;;6.37;74.24;98188.97;5033666;28;20045;-73
2023/05/25 03:28:27;;;;;;;0.20;0.20;;;;;;;6.34;74.25;98177.84;5024172;28;20080;-73
2023/05/25 03:30:56;;;;;;;0.20;0.20;;;;;;;6.37;74.44;98185.50;5032833;28;20512;-72
2023/05/25 03:33:24;;;;;;;0.10;0.10;;;;;;;6.33;74.34;98184.16;5042052;28;20495;-73
2023/05/25 03:35:52;;;;;;;0.20;0.20;;;;;;;6.37;74.16;98190.81;5032335;28;20539;-73
2023/05/25 03:38:19;;;;;;;0.32;0.32;;;;;;;6.62;74.02;98192.66;5035305;28;20068;-73
2023/05/25 03:40:47;;;;;;;0.20;0.20;;;;;;;6.56;73.69;98193.25;5049952;28;20041;-73
2023/05/25 03:43:15;;;;;;;0.28;0.28;;;;;;;6.52;74.08;98191.94;5044342;28;20583;-73
2023/05/25 03:45:46;;;;;;;0.35;0.35;;;;;;;6.45;73.75;98199.66;5035580;28;20407;-73
2023/05/25 03:48:15;;;;;;;0.28;0.28;;;;;;;6.41;73.88;98200.13;5033860;28;20037;-73
2023/05/25 03:50:43;;;;;;;0.30;0.30;;;;;;;6.42;74.07;98207.09;5045517;28;20167;-73
2023/05/25 03:53:10;;;;;;;0.20;0.20;;;;;;;6.33;74.14;98208.03;5033870;28;20420;-73
2023/05/25 03:55:38;;;;;;;0.30;0.30;;;;;;;6.23;74.79;98219.50;5037522;28;20094;-72
2023/05/25 03:58:08;;;;;;;0.30;0.30;;;;;;;6.44;74.17;98226.31;5033386;28;20079;-73
2023/05/25 04:00:36;;;;;;;0.30;0.30;;;;;;;6.20;74.28;98226.94;5041405;28;20048;-72
2023/05/25 04:03:05;;;;;;;0.20;0.20;;;;;;;6.22;74.44;98230.28;5045298;28;20499;-73
2023/05/25 04:05:35;;;;;;;0.35;0.35;;;;;;;6.21;73.99;98233.91;5039923;28;20044;-73
2023/05/25 04:08:03;;;;;;;0.20;0.20;;;;;;;6.24;74.18;98231.78;5046839;28;20049;-72
2023/05/25 04:10:30;;;;;;;0.20;0.20;;;;;;;6.15;74.06;98245.94;5030314;28;20047;-72
2023/05/25 04:13:00;;;;;;;0.20;0.20;;;;;;;6.13;74.40;98234.66;5024433;28;20527;-73
2023/05/25 04:15:27;;;;;;;0.30;0.30;;;;;;;6.09;75.08;98233.31;5033051;28;20045;-73
2023/05/25 04:18:19;;;;;;;0.13;0.13;;;;;;;6.05;75.08;98229.28;5033575;28;20036;-72
2023/05/25 04:20:49;;;;;;;0.20;0.20;;;;;;;6.15;75.06;98235.34;5038739;28;20056;-73
2023/05/25 04:23:20;;;;;;;0.10;0.10;;;;;;;5.97;75.82;98237.16;5039843;28;20042;-73
2023/05/25 04:25:50;;;;;;;0.30;0.30;;;;;;;6.18;75.41;98234.22;5031263;28;20107;-73
2023/05/25 04:28:18;;;;;;;0.38;0.38;;;;;;;6.28;75.16;98239.44;5030651;28;20041;-74
2023/05/25 04:30:59;;;;;;;0.20;0.20;;;;;;;6.41;74.79;98229.28;5033629;28;20141;-73
2023/05/25 04:33:45;;;;;;;0.20;0.20;;;;;;;6.44;74.82;98236.91;5031361;28;20692;-73
2023/05/25 04:36:21;;;;;;;0.25;0.25;;;;;;;6.57;74.41;98242.66;5029961;28;20065;-73
2023/05/25 04:38:51;;;;;;;0.30;0.30;;;;;;;6.46;74.40;98232.31;5041838;28;20396;-73
2023/05/25 04:41:18;;;;;;;0.10;0.10;;;;;;;6.49;74.34;98232.00;5027567;28;20037;-73
2023/05/25 04:43:52;;;;;;;0.28;0.28;;;;;;;6.40;74.49;98238.22;5053707;28;20075;-72
2023/05/25 04:46:39;;;;;;;0.20;0.20;;;;;;;6.41;75.07;98237.25;5035879;28;20484;-73
2023/05/25 04:49:12;;;;;;;0.25;0.25;;;;;;;6.41;75.26;98235.44;5032943;28;20399;-73
2023/05/25 04:51:41;;;;;;;0.35;0.35;;;;;;;6.49;74.93;98232.00;5047803;28;20048;-73
2023/05/25 04:54:09;;;;;;;0.30;0.30;;;;;;;6.31;75.49;98232.03;5032981;28;20247;-73
2023/05/25 04:56:38;;;;;;;0.22;0.22;;;;;;;6.40;75.24;98230.28;5031881;28;20095;-72
2023/05/25 04:59:06;;;;;;;0.30;0.30;;;;;;;6.44;75.37;98228.97;5051912;28;20554;-72
2023/05/25 05:01:39;;;;;;;0.20;0.20;;;;;;;6.57;75.13;98232.91;5045376;28;20547;-73
2023/05/25 05:04:07;;;;;;;0.30;0.30;;;;;;;6.60;75.08;98231.75;5039005;28;20048;-73
2023/05/25 05:06:35;;;;;;;0.20;0.20;;;;;;;6.80;74.44;98221.78;5041312;28;20637;-74
2023/05/25 05:09:05;;;;;;;0.22;0.22;;;;;;;6.90;74.24;98227.84;5039638;28;20194;-74
2023/05/25 05:11:33;;;;;;;0.20;0.20;;;;;;;7.09;73.83;98216.16;5040940;28;20053;-74
2023/05/25 05:14:00;;;;;;;0.20;0.20;;;;;;;7.25;73.84;98226.91;5046660;28;20045;-73
2023/05/25 05:16:33;;;;;;;0.13;0.13;;;;;;;7.22;73.41;98229.84;5039866;28;20055;-72
2023/05/25 05:19:01;;;;;;;0.30;0.30;;;;;;;7.28;73.79;98232.69;5032525;28;20045;-74
2023/05/25 05:21:29;;;;;;;0.20;0.20;;;;;;;7.30;73.20;98232.53;5058470;28;20045;-73
2023/05/25 05:23:57;;;;;;;0.30;0.28;;;;;;;7.31;73.59;98227.09;5051916;28;20037;-73
2023/05/25 05:26:26;;;;;;;0.13;0.13;;;;;;;7.37;73.46;98230.94;5049183;28;20384;-73
2023/05/25 05:28:54;;;;;;;0.20;0.20;;;;;;;7.44;73.58;98239.94;5049889;28;20061;-74
2023/05/25 05:31:23;;;;;;;0.20;0.20;;;;;;;7.50;73.28;98239.28;5037518;28;20431;-73
2023/05/25 05:33:50;;;;;;;0.20;0.20;;;;;;;7.62;73.03;98243.31;5053683;28;20152;-73
2023/05/25 05:36:18;;;;;;;0.17;0.17;;;;;;;7.61;72.84;98239.00;5033241;28;20073;-73
2023/05/25 05:38:46;;;;;;;0.20;0.20;;;;;;;7.76;73.19;98246.38;5042818;28;20063;-73
2023/05/25 05:41:14;;;;;;;0.20;0.20;;;;;;;7.81;72.72;98236.06;5034157;28;20080;-73
2023/05/25 05:43:48;;;;;;;0.22;0.22;;;;;;;7.91;72.26;98240.25;5044001;28;20041;-72
2023/05/25 05:46:17;;;;;;;0.17;0.17;;;;;;;7.98;72.57;98243.13;5033835;28;20120;-74
2023/05/25 05:48:44;;;;;;;0.30;0.30;;;;;;;7.92;72.86;98243.75;5055931;28;20333;-73
2023/05/25 05:51:13;;;;;;;0.20;0.20;;;;;;;8.14;73.12;98248.47;5044486;28;20049;-73
2023/05/25 05:53:40;;;;;;;0.13;0.13;;;;;;;8.36;72.46;98237.22;5042255;28;20049;-73
2023/05/25 05:56:16;;;;;;;0.20;0.20;;;;;;;8.37;72.28;98236.25;5063253;28;20127;-73
2023/05/25 05:58:47;;;;;;;0.20;0.20;;;;;;;8.49;72.06;98246.56;5033908;28;20063;-73
2023/05/25 06:01:16;;;;;;;0.15;0.15;;;;;;;8.61;71.48;98235.44;5036614;28;20044;-73
2023/05/25 06:03:46;;;;;;;0.20;0.20;;;;;;;8.74;71.56;98238.41;5042475;28;20048;-73
2023/05/25 06:06:14;;;;;;;0.35;0.35;;;;;;;8.79;71.17;98240.56;5055899;28;20570;-73
2023/05/25 06:08:43;;;;;;;0.32;0.32;;;;;;;8.94;71.20;98236.22;5047821;28;20543;-73
2023/05/25 06:11:11;;;;;;;0.20;0.20;;;;;;;9.03;70.94;98232.53;5032877;28;20060;-73
2023/05/25 06:13:39;;;;;;;0.13;0.13;;;;;;;9.16;70.50;98235.50;5057486;28;20511;-73
2023/05/25 06:16:07;;;;;;;0.20;0.20;;;;;;;9.15;70.66;98239.19;5025109;28;20500;-73
2023/05/25 06:18:37;;;;;;;0.20;0.20;;;;;;;9.02;71.44;98241.56;5041744;28;20045;-73
2023/05/25 06:21:05;;;;;;;0.30;0.30;;;;;;;9.15;71.48;98243.66;5043624;28;20037;-73
2023/05/25 06:23:33;;;;;;;0.20;0.20;;;;;;;9.40;70.57;98252.44;5027183;28;20053;-73
2023/05/25 06:26:03;;;;;;;0.10;0.10;;;;;;;9.56;69.82;98242.56;5049779;28;20064;-73
2023/05/25 06:28:32;;;;;;;0.20;0.20;;;;;;;9.75;69.83;98236.00;5030285;28;20068;-73
2023/05/25 06:30:59;;;;;;;0.20;0.20;;;;;;;9.91;69.88;98241.25;5031353;28;20076;-73
2023/05/25 06:33:30;;;;;;;0.20;0.20;;;;;;;10.07;69.81;98245.66;5032646;28;20037;-73
2023/05/25 06:36:00;;;;;;;0.22;0.22;;;;;;;10.22;69.53;98243.13;5035078;28;20048;-73
2023/05/25 06:38:28;;;;;;;0.10;0.10;;;;;;;10.39;69.36;98252.66;5041922;28;20042;-73
2023/05/25 06:40:56;;;;;;;0.30;0.30;;;;;;;10.46;69.13;98247.47;5051196;28;20041;-73
2023/05/25 06:43:23;;;;;;;0.28;0.28;;;;;;;10.64;68.93;98243.47;5033578;28;20045;-73
2023/05/25 06:46:08;;;;;;;0.20;0.20;;;;;;;10.77;69.11;98245.56;5038191;28;20452;-72
2023/05/25 06:48:39;;;;;;;0.10;0.10;;;;;;;10.98;68.96;98248.38;5057613;28;20510;-73
2023/05/25 06:51:07;;;;;;;0.20;0.20;;;;;;;10.98;68.19;98237.69;5047510;28;20076;-73
2023/05/25 06:53:35;;;;;;;0.28;0.28;;;;;;;11.10;68.05;98230.06;5060552;28;20123;-73
2023/05/25 06:56:03;;;;;;;0.10;0.10;;;;;;;11.29;67.94;98229.53;5045686;28;20452;-73
2023/05/25 06:58:30;;;;;;;0.20;0.20;;;;;;;11.53;66.94;98238.28;5050378;28;20041;-73
2023/05/25 07:00:59;;;;;;;0.20;0.20;;;;;;;11.66;66.87;98241.13;5043530;28;20048;-73
2023/05/25 07:03:27;;;;;;;0.20;0.20;;;;;;;11.84;65.67;98230.06;5052769;28;20033;-73
2023/05/25 07:05:58;;;;;;;0.20;0.20;;;;;;;12.00;65.60;98238.72;5034551;28;20132;-73
2023/05/25 07:08:27;;;;;;;0.15;0.15;;;;;;;12.17;65.12;98235.81;5046122;28;20107;-74
2023/05/25 07:10:54;;;;;;;0.20;0.20;;;;;;;12.29;64.34;98242.34;5060976;28;20045;-72
2023/05/25 07:13:22;;;;;;;0.20;0.20;;;;;;;12.43;63.95;98246.84;5045174;28;20044;-74
2023/05/25 07:15:51;;;;;;;0.20;0.20;;;;;;;12.57;63.49;98243.25;5050670;28;20049;-73
2023/05/25 07:18:19;;;;;;;0.20;0.20;;;;;;;12.74;62.91;98243.84;5043950;28;20038;-73
2023/05/25 07:20:47;;;;;;;0.22;0.22;;;;;;;12.82;62.75;98239.16;5058073;28;20045;-73
2023/05/25 07:23:15;;;;;;;0.15;0.15;;;;;;;12.90;62.23;98240.03;5042828;28;20045;-73
2023/05/25 07:25:44;;;;;;;0.20;0.20;;;;;;;13.11;61.86;98235.47;5059827;28;20135;-73
2023/05/25 07:28:13;;;;;;;0.28;0.28;;;;;;;13.32;61.24;98225.75;5049096;28;20033;-74
2023/05/25 07:30:40;;;;;;;0.20;0.20;;;;;;;13.50;60.30;98226.91;5038154;28;20145;-73
2023/05/25 07:33:10;;;;;;;0.20;0.20;;;;;;;13.65;59.59;98226.78;5042556;28;20036;-73
2023/05/25 07:35:38;;;;;;;0.20;0.20;;;;;;;13.76;59.37;98231.59;5051182;28;20048;-73
2023/05/25 07:38:05;;;;;;;0.20;0.20;;;;;;;14.00;59.18;98234.81;5044039;28;20033;-73
2023/05/25 07:40:33;;;;;;;0.10;0.10;;;;;;;14.19;57.51;98234.03;5042983;28;20156;-73
2023/05/25 07:43:02;;;;;;;0.20;0.20;;;;;;;14.24;56.61;98232.41;5024026;28;20317;-73
2023/05/25 07:45:29;;;;;;;0.30;0.30;;;;;;;14.31;56.69;98237.81;5051062;28;20091;-72
2023/05/25 07:47:57;;;;;;;0.10;0.10;;;;;;;14.46;56.08;98234.97;5049929;28;20136;-72
2023/05/25 07:50:25;;;;;;;0.20;0.20;;;;;;;14.62;56.20;98229.22;5067074;28;20541;-73
2023/05/25 07:52:52;;;;;;;0.20;0.20;;;;;;;14.80;55.73;98240.19;5054726;28;20407;-73
2023/05/25 07:55:20;;;;;;;0.20;0.20;;;;;;;14.93;54.54;98242.91;5050794;28;20391;-73
2023/05/25 07:57:47;;;;;;;0.22;0.22;;;;;;;15.10;54.28;98246.00;5060290;28;20491;-72
2023/05/25 08:00:17;;;;;;;0.20;0.20;;;;;;;15.22;52.66;98251.56;5056465;28;20037;-73
2023/05/25 08:02:45;;;;;;;0.17;0.17;;;;;;;15.32;52.42;98249.28;5050497;28;20377;-72
2023/05/25 08:05:13;;;;;;;0.15;0.15;;;;;;;15.43;51.74;98251.34;5036763;28;20128;-73
2023/05/25 08:07:41;;;;;;;0.20;0.20;;;;;;;15.61;51.86;98246.16;5032314;28;20039;-72
2023/05/25 08:10:10;;;;;;;0.10;0.10;;;;;;;15.70;51.40;98244.91;5055077;28;20036;-73
2023/05/25 08:12:37;;;;;;;0.20;0.20;;;;;;;15.88;51.92;98254.19;5062472;28;20136;-73
2023/05/25 08:15:18;;;;;;;0.20;0.20;;;;;;;16.05;51.30;98252.66;5053906;28;20053;-73
2023/05/25 08:17:46;;;;;;;0.20;0.20;;;;;;;16.01;51.25;98251.41;5027860;28;20056;-73
2023/05/25 08:20:14;;;;;;;0.10;0.10;;;;;;;15.96;51.77;98251.25;5050685;28;20040;-73
2023/05/25 08:22:42;;;;;;;0.10;0.10;;;;;;;16.22;50.63;98251.13;5055310;28;20052;-72
2023/05/25 08:25:10;;;;;;;0.10;0.10;;;;;;;16.44;50.52;98252.47;5056540;28;20041;-73
2023/05/25 08:27:37;;;;;;;0.15;0.15;;;;;;;16.16;49.54;98249.31;5063774;28;20068;-72
2023/05/25 08:30:06;;;;;;;0.30;0.30;;;;;;;16.37;49.42;98256.25;5059845;28;20041;-73
2023/05/25 08:32:35;;;;;;;0.17;0.17;;;;;;;16.52;49.28;98259.47;5045584;28;20060;-72
2023/05/25 08:35:03;;;;;;;0.10;0.10;;;;;;;16.75;48.47;98251.69;5053329;28;20396;-73
2023/05/25 08:37:32;;;;;;;0.03;0.03;;;;;;;16.91;48.26;98249.53;5050596;28;20086;-73
2023/05/25 08:40:06;;;;;;;0.20;0.20;;;;;;;17.10;46.39;98253.94;5065051;22;20045;31
2023/05/25 08:42:34;;;;;;;0.10;0.10;;;;;;;17.27;46.22;98260.44;4999982;28;20052;-73
2023/05/25 08:45:01;;;;;;;0.20;0.20;;;;;;;17.30;46.29;98267.25;4997628;28;20045;-73
2023/05/25 08:47:31;;;;;;;0.20;0.20;;;;;;;17.36;45.77;98251.00;4986813;28;20043;-72
2023/05/25 08:50:02;;;;;;;0.20;0.20;;;;;;;17.40;46.27;98260.31;5000148;28;20382;-73
2023/05/25 08:52:33;;;;;;;0.15;0.15;;;;;;;17.52;45.33;98263.13;4995419;28;20058;-73
2023/05/25 08:55:03;;;;;;;0.10;0.10;;;;;;;17.71;45.35;98259.41;4992943;28;20120;-73
2023/05/25 08:57:34;;;;;;;0.17;0.17;;;;;;;17.78;45.24;98257.47;4998912;28;20042;-73
2023/05/25 09:00:06;;;;;;;0.10;0.10;;;;;;;18.02;44.57;98257.63;4990220;28;20046;-73
2023/05/25 09:02:38;;;;;;;0.20;0.20;;;;;;;17.36;44.95;98274.47;4991199;28;20400;-73
2023/05/25 09:05:08;;;;;;;0.20;0.20;;;;;;;17.68;44.09;98262.56;4989014;28;20046;-73
2023/05/25 09:07:36;;;;;;;0.10;0.10;;;;;;;17.81;44.10;98265.13;4995760;28;20050;-73
2023/05/25 09:10:04;;;;;;;0.10;0.10;;;;;;;18.01;44.10;98274.88;4989360;28;20545;-73
2023/05/25 09:12:32;;;;;;;0.10;0.10;;;;;;;17.72;42.74;98263.78;4996446;28;20046;-73
2023/05/25 09:15:00;;;;;;;0.13;0.13;;;;;;;17.85;43.28;98265.50;4988667;28;20125;-73
2023/05/25 09:17:28;;;;;;;0.10;0.10;;;;;;;18.04;42.86;98266.34;4977161;28;20050;-72
2023/05/25 09:19:55;;;;;;;0.17;0.17;;;;;;;18.12;43.05;98266.84;4990181;28;20053;-73
2023/05/25 09:22:24;;;;;;;0.10;0.10;;;;;;;18.31;42.19;98271.19;4989916;28;20100;-74
2023/05/25 09:24:53;;;;;;;0.20;0.20;;;;;;;18.26;41.99;98262.13;4991804;28;20050;-73
2023/05/25 09:27:22;;;;;;;0.10;0.10;;;;;;;18.46;41.82;98267.28;5002101;28;20070;-74
2023/05/25 09:29:51;;;;;;;0.10;0.10;;;;;;;18.57;40.66;98264.66;4992056;28;20048;-73
2023/05/25 09:32:19;;;;;;;0.10;0.10;;;;;;;18.75;42.30;98263.75;4992795;28;20129;-71
2023/05/25 09:34:47;;;;;;;0.20;0.20;;;;;;;18.43;43.26;98270.41;4991030;28;20038;-73
2023/05/25 09:37:17;;;;;;;0.10;0.10;;;;;;;18.94;42.95;98268.06;4989443;28;20042;-72
2023/05/25 09:39:47;;;;;;;0.10;0.10;;;;;;;18.95;41.56;98269.72;4986437;28;20043;-73
2023/05/25 09:42:15;;;;;;;0.10;0.10;;;;;;;19.14;41.98;98275.84;4989255;28;20039;-74
2023/05/25 09:44:44;;;;;;;0.10;0.10;;;;;;;19.27;41.57;98275.66;4991376;28;20490;-74
2023/05/25 09:47:15;;;;;;;0.10;0.10;;;;;;;19.39;41.13;98278.38;4998363;28;20046;-73
2023/05/25 09:49:43;;;;;;;0.20;0.20;;;;;;;19.38;40.80;98272.13;4981497;28;20520;-73
2023/05/25 09:52:11;;;;;;;0.20;0.20;;;;;;;19.31;40.95;98271.41;4997790;28;20054;-73
2023/05/25 09:54:39;;;;;;;0.10;0.10;;;;;;;19.22;41.67;98270.09;4992545;28;20120;-73
2023/05/25 09:57:08;;;;;;;0.15;0.15;;;;;;;19.50;41.72;98269.47;4994253;28;20139;-72
2023/05/25 09:59:35;;;;;;;0.10;0.10;;;;;;;19.63;41.35;98274.63;4973964;28;20042;-73
2023/05/25 10:02:03;;;;;;;0.00;0.00;;;;;;;19.73;40.69;98282.16;4994065;28;20448;-73
2023/05/25 10:04:31;;;;;;;0.10;0.10;;;;;;;19.71;41.46;98282.44;4991847;28;20073;-72
2023/05/25 10:07:00;;;;;;;0.10;0.10;;;;;;;19.79;41.06;98281.25;4995846;28;20294;-74
2023/05/25 10:09:29;;;;;;;0.10;0.10;;;;;;;19.86;41.81;98283.81;4990343;28;20038;-73
2023/05/25 10:11:57;;;;;;;0.10;0.10;;;;;;;19.33;43.48;98284.72;4989447;28;20052;-74
2023/05/25 10:14:28;;;;;;;0.10;0.10;;;;;;;19.30;43.29;98283.31;4989577;28;20065;-73
2023/05/25 10:16:58;;;;;;;0.10;0.10;;;;;;;18.85;43.93;98282.97;4987018;28;20046;-74
2023/05/25 10:19:33;;;;;;;0.10;0.10;;;;;;;18.98;44.32;98292.78;4991158;28;20129;-73
2023/05/25 10:22:06;;;;;;;0.00;0.00;;;;;;;19.13;44.02;98289.63;4997583;28;20467;-73
2023/05/25 10:24:38;;;;;;;0.10;0.10;;;;;;;19.29;43.49;98289.78;4993703;28;20061;-73
2023/05/25 10:27:07;;;;;;;0.20;0.20;;;;;;;19.46;42.50;98283.66;4986826;28;20062;-73
2023/05/25 10:29:55;;;;;;;0.10;0.10;;;;;;;19.71;42.11;98289.72;4993999;28;20050;-73
2023/05/25 10:32:24;;;;;;;0.10;0.10;;;;;;;19.90;41.73;98283.13;4993057;28;20044;-73
2023/05/25 10:34:52;;;;;;;0.10;0.10;;;;;;;19.87;41.27;98289.00;4986514;28;20046;-74
2023/05/25 10:37:20;;;;;;;0.10;0.10;;;;;;;20.13;40.35;98283.09;4989162;28;20532;-73
2023/05/25 10:39:49;;;;;;;0.10;0.10;;;;;;;20.23;40.08;98287.06;4989754;28;20054;-73
2023/05/25 10:42:18;;;;;;;0.10;0.10;;;;;;;20.34;39.89;98278.09;4992925;28;20114;-73
2023/05/25 10:44:46;;;;;;;0.10;0.10;;;;;;;20.25;40.00;98282.22;4984452;28;20050;-73
2023/05/25 10:47:15;;;;;;;0.10;0.10;;;;;;;19.94;40.51;98280.72;4989403;28;20452;-73
2023/05/25 10:49:53;;;;;;;0.10;0.10;;;;;;;20.14;40.47;98287.41;4991634;28;20042;-74
2023/05/25 10:52:22;;;;;;;0.10;0.10;;;;;;;19.78;41.13;98280.41;4996170;28;20054;-73
2023/05/25 10:54:49;;;;;;;0.10;0.10;;;;;;;19.61;42.18;98282.19;4990927;28;20074;-73
2023/05/25 10:57:22;;;;;;;0.10;0.10;;;;;;;19.84;42.15;98291.34;4992176;28;20129;-73
2023/05/25 10:59:53;;;;;;;0.10;0.10;;;;;;;19.95;41.88;98280.50;4994404;28;20125;-73
2023/05/25 11:02:23;;;;;;;0.15;0.15;;;;;;;20.06;41.29;98285.09;4995529;28;20046;-73
2023/05/25 11:04:53;;;;;;;0.10;0.10;;;;;;;20.21;40.86;98286.47;4986896;28;20065;-73
2023/05/25 11:07:21;;;;;;;0.10;0.10;;;;;;;20.35;40.37;98285.19;4995972;28;20065;-72
2023/05/25 11:09:57;;;;;;;0.10;0.10;;;;;;;20.33;40.69;98279.97;4990626;28;20043;-73
2023/05/25 11:12:26;;;;;;;0.10;0.10;;;;;;;20.54;40.35;98288.56;4992561;28;20129;-72
2023/05/25 11:15:13;;;;;;;0.10;0.10;;;;;;;20.48;40.35;98282.19;4972020;28;20098;-75
2023/05/25 11:17:47;;;;;;;0.10;0.10;;;;;;;20.60;39.59;98277.53;4995440;28;20049;-73
2023/05/25 11:20:22;;;;;;;0.10;0.10;;;;;;;20.63;40.24;98282.50;4982207;28;20115;-74
2023/05/25 11:22:51;;;;;;;0.10;0.10;;;;;;;20.77;40.32;98283.00;4984633;28;20093;-74
2023/05/25 11:25:36;;;;;;;0.05;0.00;;;;;;;19.79;41.58;98279.34;4985562;28;20121;-75
2023/05/25 11:28:04;;;;;;;0.10;0.10;;;;;;;20.34;41.33;98280.81;4986863;28;20065;-73
2023/05/25 11:30:32;;;;;;;0.10;0.10;;;;;;;20.60;40.29;98279.44;4985399;28;20447;-74
2023/05/25 11:33:03;;;;;;;0.10;0.10;;;;;;;20.36;41.06;98274.06;4988003;28;20052;-74
2023/05/25 11:35:35;;;;;;;0.10;0.10;;;;;;;20.55;40.61;98269.31;4988782;28;20043;-74
2023/05/25 11:38:07;;;;;;;0.10;0.10;;;;;;;20.66;40.10;98270.34;4983988;28;20034;-74
2023/05/25 11:40:35;;;;;;;0.10;0.10;;;;;;;20.89;39.68;98273.75;4991086;28;20494;-74
2023/05/25 11:43:06;;;;;;;;;;;;;;;20.89;40.05;98275.63;4990166;28;20047;-74
2023/05/25 11:45:36;;;;;;;0.10;0.10;;;;;;;21.08;39.63;98260.75;5002807;28;19926;-73
2023/05/25 11:48:05;;;;;;;0.10;0.10;;;;;;;21.08;39.15;98265.38;4999728;28;20046;-74
2023/05/25 11:50:33;;;;;;;0.00;0.00;;;;;;;21.08;39.60;98265.38;5003444;28;20038;-74